Lighthouse Point, Florida
Current Conditions -  °F | °C
As of 4:51 AM on Thursday 23 Oct 2014 (Local Time) from KPMP Reporting Station
Moderate Rain Moderate Rain  
Wind Chill: 75°   Ceiling: 1600
Heat Index: 75°   Visibility: 2mi
Dew Point: 73°   Wind: 7mph
Humidity: 94%   Direction: 70°ENE
Pressure: 29.89"   Gusts: NA
Location:  26.28°N, 80.09°W
Report Text: KPMP 230851Z AUTO 07006KT 2SM RA BR SCT011 BKN016 OVC046 24/23 A2989 RMK AO2 RAB28 P0016
Loading
Personal Weather Stations






























Interactive Weather Map
Tropical Storm Tracking
New forecast layout! Learn more

10-Day Weather Forecast

Advertisements
Track Severe Weather on mobile